Time;durP1;ratioP1;P1;durP2;ratioP2;P2;SDS_P1;SDS_P2;PMS_P1;PMS_P2;Temp;Humidity;BMP_temperature;BMP_pressure;BME280_temperature;BME280_humidity;BME280_pressure;Samples;Min_cycle;Max_cycle;Signal;HPM_P1;HPM_P2
2022/12/30 00:01:06;;;;;;;;;;;;;;;-144.99;100.00;52629.50;4978579;28;19954;-74
2022/12/30 00:03:34;;;;;;;;;;;;;;;-144.99;100.00;52635.63;4989988;28;19975;-74
2022/12/30 00:06:01;;;;;;;;;;;;;;;-144.99;100.00;52598.94;4990378;28;19957;-75
2022/12/30 00:11:11;;;;;;;;;;;;;;;-144.99;100.00;52635.63;4989954;28;19959;-76
2022/12/30 00:33:10;;;;;;;;;;;;;;;-144.99;100.00;52615.25;4988668;28;19957;-75
2022/12/30 00:35:39;;;;;;;;;;;;;;;-144.99;100.00;52623.38;4989683;28;19954;-75
2022/12/30 00:38:05;;;;;;;;;;;;;;;-144.99;100.00;52627.47;4989704;28;19970;-73
2022/12/30 00:40:32;;;;;;;;;;;;;;;-144.99;100.00;52619.31;4988518;28;20035;-73
2022/12/30 00:43:10;;;;;;;;;;;;;;;-144.99;100.00;52574.47;4988733;28;19950;-74
2022/12/30 00:45:38;;;;;;;;;;;;;;;-144.99;99.93;52668.22;4988149;28;19979;-74
2022/12/30 00:56:19;;;;;;;;;;;;;;;-144.99;99.06;52603.00;4993013;28;19954;-72
2022/12/30 00:58:46;;;;;;;;;;;;;;;-144.99;99.03;52613.19;4985475;28;19986;-73
2022/12/30 01:01:12;;;;;;;;;;;;;;;-144.99;98.84;52631.53;4988000;28;19950;-75
2022/12/30 01:03:39;;;;;;;;;;;;;;;-144.99;98.52;52619.31;4988429;28;19951;-76
2022/12/30 01:06:07;;;;;;;;;;;;;;;-144.99;98.14;52631.53;4989433;28;19966;-75
2022/12/30 01:08:34;;;;;;;;;;;;;;;-144.99;98.39;52651.94;4987534;28;19963;-75
2022/12/30 01:11:04;;;;;;;;;;;;;;;-144.99;98.27;52623.38;4989183;28;20596;-76
2022/12/30 01:13:31;;;;;;;;;;;;;;;-144.99;98.64;52615.25;4990288;28;20014;-75
2022/12/30 01:15:58;;;;;;;;;;;;;;;-144.99;98.30;52639.69;4989041;28;20447;-74
2022/12/30 01:18:24;;;;;;;;;;;;;;;-144.99;98.68;52621.34;4990299;28;19955;-75
2022/12/30 01:20:51;;;;;;;;;;;;;;;-144.99;98.49;52619.31;5008063;23;20057;-76
2022/12/30 01:23:19;;;;;;;;;;;;;;;-144.99;98.80;52631.53;4985352;28;19952;-75
2022/12/30 01:25:45;;;;;;;;;;;;;;;-144.99;99.05;52664.16;4982200;28;19948;-75
2022/12/30 01:28:12;;;;;;;;;;;;;;;-144.99;99.44;52635.63;5008249;28;20467;-75
2022/12/30 01:30:39;;;;;;;;;;;;;;;-144.99;99.65;52660.09;5007875;28;19972;-74
2022/12/30 01:33:05;;;;;;;;;;;;;;;-144.99;99.59;52645.81;4990691;28;20403;-75
2022/12/30 01:35:33;;;;;;;;;;;;;;;-144.99;100.00;52615.25;4990757;28;19960;-75
2022/12/30 01:37:59;;;;;;;;;;;;;;;-144.99;100.00;52621.34;4996354;28;20455;-77
2022/12/30 01:40:27;;;;;;;;;;;;;;;-144.99;100.00;52619.31;5009631;28;20362;-74
2022/12/30 01:42:54;;;;;;;;;;;;;;;-144.99;100.00;52627.47;5009133;28;19954;-76
2022/12/30 01:45:22;;;;;;;;;;;;;;;-144.99;100.00;52639.69;5008867;28;19952;-77
2022/12/30 01:47:52;;;;;;;;;;;;;;;-144.99;100.00;52605.03;4990066;28;19955;-75
2022/12/30 01:50:26;;;;;;;;;;;;;;;-144.99;100.00;52651.94;4991159;28;20044;-78
2022/12/30 01:52:56;;;;;;;;;;;;;;;-144.99;99.71;52635.63;4989839;28;19945;-78
2022/12/30 01:55:26;;;;;;;;;;;;;;;-144.99;99.22;52647.84;4989634;28;19947;-75
2022/12/30 01:57:55;;;;;;;;;;;;;;;-144.99;100.00;52656.00;4979291;28;19955;-76
2022/12/30 02:00:21;;;;;;;;;;;;;;;-144.99;99.68;52660.09;4985791;28;19961;-74
2022/12/30 02:02:48;;;;;;;;;;;;;;;-144.99;99.67;52643.78;4989420;28;19959;-72
2022/12/30 02:05:16;;;;;;;;;;;;;;;-144.99;99.46;52664.16;4988797;28;20346;-71
2022/12/30 02:07:45;;;;;;;;;;;;;;;-144.99;99.76;52656.00;4988376;28;19946;-73
2022/12/30 02:10:12;;;;;;;;;;;;;;;-144.99;99.82;52664.16;4985920;28;19994;-73
2022/12/30 02:12:39;;;;;;;;;;;;;;;-144.99;99.57;52635.63;4997872;28;20039;-73
2022/12/30 02:15:08;;;;;;;;;;;;;;;-144.99;99.85;52627.47;5006385;28;19951;-74
2022/12/30 02:17:44;;;;;;;;;;;;;;;-144.99;99.69;52635.63;5007598;28;19947;-73
2022/12/30 02:20:25;;;;;;;;;;;;;;;-144.99;100.00;52647.84;5007043;28;19967;-73
2022/12/30 02:23:02;;;;;;;;;;;;;;;-144.99;99.97;52635.63;5006637;28;19955;-75
2022/12/30 02:25:48;;;;;;;;;;;;;;;-144.99;99.50;52627.47;4987807;28;19961;-74
2022/12/30 02:28:29;;;;;;;;;;;;;;;-144.99;99.01;52619.31;4987913;28;20442;-73
2022/12/30 02:31:11;;;;;;;;;;;;;;;-144.99;98.49;52639.69;4987098;28;20050;-75
2022/12/30 02:33:43;;;;;;;;;;;;;;;-144.99;98.95;52607.09;4987432;28;19948;-75
2022/12/30 02:36:18;;;;;;;;;;;;;;;-144.99;98.42;52627.47;4988905;28;20406;-74
2022/12/30 02:38:48;;;;;;;;;;;;;;;-144.99;97.88;52639.69;5003428;28;19951;-76
2022/12/30 02:46:55;;;;;;;;;;;;;;;-144.99;96.68;52651.94;4996508;28;19951;-75
2022/12/30 02:49:23;;;;;;;;;;;;;;;-144.99;96.50;52615.25;5008218;28;19965;-70
2022/12/30 02:54:34;;;;;;;;;;;;;;;-144.99;95.99;52619.31;5017269;28;19963;-72
2022/12/30 02:57:01;;;;;;;;;;;;;;;-144.99;95.37;52627.47;5025605;28;19951;-71
2022/12/30 03:05:11;;;;;;;;;;;;;;;-144.99;94.50;52625.44;5005435;28;20033;-74
2022/12/30 03:07:43;;;;;;;;;;;;;;;-144.99;94.35;52619.31;5002977;28;19942;-73
2022/12/30 03:13:02;;;;;;;;;;;;;;;-144.99;94.55;52631.53;5003236;28;19956;-74
2022/12/30 03:15:32;;;;;;;;;;;;;;;-144.99;94.40;52643.78;4988647;28;20399;-74
2022/12/30 03:18:01;;;;;;;;;;;;;;;-144.99;94.55;52635.63;4988236;28;19957;-72
2022/12/30 03:20:28;;;;;;;;;;;;;;;-144.99;94.01;52605.03;4987427;28;19984;-74
2022/12/30 03:28:27;;;;;;;;;;;;;;;-144.99;94.25;52631.53;4982179;28;19976;-71
2022/12/30 03:30:56;;;;;;;;;;;;;;;-144.99;94.46;52668.22;5005122;28;19999;-74
2022/12/30 03:33:24;;;;;;;;;;;;;;;-144.99;94.18;52590.78;4987614;28;19949;-75
2022/12/30 03:35:54;;;;;;;;;;;;;;;-144.99;94.69;52639.69;4990391;28;19971;-74
2022/12/30 03:38:24;;;;;;;;;;;;;;;-144.99;94.55;52649.88;4991757;28;19957;-75
2022/12/30 03:40:52;;;;;;;;;;;;;;;-144.99;94.17;52631.53;5014325;28;19960;-76
2022/12/30 03:43:19;;;;;;;;;;;;;;;-144.99;94.90;52623.38;5030142;28;19958;-75
2022/12/30 03:45:46;;;;;;;;;;;;;;;-144.99;94.77;52647.84;5007796;28;20041;-73
2022/12/30 03:48:13;;;;;;;;;;;;;;;-144.99;95.02;52627.47;4992234;28;19952;-74
2022/12/30 03:50:41;;;;;;;;;;;;;;;-144.99;95.09;52621.34;4991217;28;20004;-75
2022/12/30 03:53:07;;;;;;;;;;;;;;;-144.99;94.38;52664.16;4990931;28;20015;-76
2022/12/30 03:55:34;;;;;;;;;;;;;;;-144.99;95.19;52651.94;4991612;28;19947;-74
2022/12/30 03:58:01;;;;;;;;;;;;;;;-144.99;94.70;52668.22;4983947;28;19950;-75
2022/12/30 04:00:27;;;;;;;;;;;;;;;-144.99;95.20;52625.44;4987512;28;20028;-74
2022/12/30 04:02:54;;;;;;;;;;;;;;;-144.99;95.31;52635.63;4986911;28;19988;-75
2022/12/30 04:05:20;;;;;;;;;;;;;;;-144.99;95.17;52594.84;4991495;28;19960;-76
2022/12/30 04:07:48;;;;;;;;;;;;;;;-144.99;94.89;52668.22;4991772;28;19954;-75
2022/12/30 04:10:15;;;;;;;;;;;;;;;-144.99;94.59;52619.31;4995843;28;20790;-74
2022/12/30 04:12:42;;;;;;;;;;;;;;;-144.99;94.48;52643.78;5000967;28;20291;-74
2022/12/30 04:15:09;;;;;;;;;;;;;;;-144.99;94.68;52660.09;5009493;28;20158;-76
2022/12/30 04:17:35;;;;;;;;;;;;;;;-144.99;93.90;52651.94;5011418;28;20053;-77
2022/12/30 04:20:02;;;;;;;;;;;;;;;-144.99;94.01;52633.59;5010242;28;19955;-77
2022/12/30 04:22:29;;;;;;;;;;;;;;;-144.99;94.92;52617.28;5010102;28;20334;-75
2022/12/30 04:24:57;;;;;;;;;;;;;;;-144.99;95.13;52619.31;5010350;28;20009;-75
2022/12/30 04:27:23;;;;;;;;;;;;;;;-144.99;95.46;52678.44;5011089;28;19960;-76
2022/12/30 04:29:50;;;;;;;;;;;;;;;-144.99;95.23;52639.69;5008526;28;19968;-76
2022/12/30 04:32:17;;;;;;;;;;;;;;;-144.99;95.24;52647.84;5010982;28;20297;-75
2022/12/30 04:34:43;;;;;;;;;;;;;;;-144.99;95.29;52651.94;5010704;28;19943;-76
2022/12/30 04:37:10;;;;;;;;;;;;;;;-144.99;95.11;52627.47;5011091;28;19957;-74
2022/12/30 04:39:36;;;;;;;;;;;;;;;-144.99;94.76;52668.22;5010495;28;19945;-75
2022/12/30 04:42:04;;;;;;;;;;;;;;;-144.99;95.79;52639.69;4998269;28;19974;-78
2022/12/30 04:44:31;;;;;;;;;;;;;;;-144.99;95.34;52635.63;4990600;28;19952;-79
2022/12/30 04:46:58;;;;;;;;;;;;;;;-144.99;95.33;52647.84;4991288;28;19946;-75
2022/12/30 04:49:24;;;;;;;;;;;;;;;-144.99;95.05;52635.63;5010645;28;20496;-76
2022/12/30 04:51:51;;;;;;;;;;;;;;;-144.99;95.42;52611.16;5009436;28;19972;-73
2022/12/30 04:54:17;;;;;;;;;;;;;;;-144.99;95.25;52664.16;5000617;28;19947;-73
2022/12/30 04:56:44;;;;;;;;;;;;;;;-144.99;95.41;52639.69;5009629;28;19954;-74
2022/12/30 04:59:12;;;;;;;;;;;;;;;-144.99;95.51;52643.78;4991213;28;19983;-75
2022/12/30 05:01:38;;;;;;;;;;;;;;;-144.99;95.18;52605.03;4983434;28;19964;-73
2022/12/30 05:04:06;;;;;;;;;;;;;;;-144.99;95.51;52656.00;4989882;28;19956;-73
2022/12/30 05:06:33;;;;;;;;;;;;;;;-144.99;94.92;52627.47;4991111;28;20455;-72
2022/12/30 05:08:59;;;;;;;;;;;;;;;-144.99;95.10;52617.28;4992899;28;19950;-72
2022/12/30 05:11:26;;;;;;;;;;;;;;;-144.99;94.76;52635.63;4998310;28;20051;-73
2022/12/30 05:13:53;;;;;;;;;;;;;;;-144.99;94.79;52635.63;5023027;28;19948;-73
2022/12/30 05:16:21;;;;;;;;;;;;;;;-144.99;95.09;52660.09;5020312;28;19965;-71
2022/12/30 05:18:47;;;;;;;;;;;;;;;-144.99;94.60;52709.00;5027724;28;19949;-71
2022/12/30 05:21:14;;;;;;;;;;;;;;;-144.99;93.99;52598.94;5023322;28;19981;-70
2022/12/30 05:26:24;;;;;;;;;;;;;;;-144.99;95.42;52639.69;5011417;28;20536;-70
2022/12/30 05:28:51;;;;;;;;;;;;;;;-144.99;94.77;52635.63;5011453;28;19952;-77
2022/12/30 05:31:19;;;;;;;;;;;;;;;-144.99;95.13;52633.59;5010164;28;19964;-73
2022/12/30 05:33:47;;;;;;;;;;;;;;;-144.99;94.55;52664.16;5008865;28;19948;-72
2022/12/30 05:36:14;;;;;;;;;;;;;;;-144.99;95.20;52617.28;5008921;28;20403;-71
2022/12/30 05:38:41;;;;;;;;;;;;;;;-144.99;95.86;52647.84;5013359;28;19956;-72
2022/12/30 05:41:08;;;;;;;;;;;;;;;-144.99;96.24;52607.09;5014460;28;19976;-71
2022/12/30 05:43:34;;;;;;;;;;;;;;;-144.99;96.41;52647.84;5014325;28;19949;-72
2022/12/30 05:46:01;;;;;;;;;;;;;;;-144.99;97.05;52651.94;5012239;28;20051;-72
2022/12/30 05:48:27;;;;;;;;;;;;;;;-144.99;96.85;52653.97;5009633;28;19991;-72
2022/12/30 05:50:55;;;;;;;;;;;;;;;-144.99;97.41;52676.38;5012732;28;20031;-73
2022/12/30 05:53:22;;;;;;;;;;;;;;;-144.99;97.62;52627.47;5012652;28;19936;-73
2022/12/30 05:55:48;;;;;;;;;;;;;;;-144.99;97.70;52647.84;5013436;28;19947;-73
2022/12/30 05:58:15;;;;;;;;;;;;;;;-144.99;97.88;52680.47;5001812;28;20116;-72
2022/12/30 06:00:42;;;;;;;;;;;;;;;-144.99;97.78;52651.94;5011497;28;19964;-73
2022/12/30 06:03:08;;;;;;;;;;;;;;;-144.99;97.11;52623.38;5026572;28;19940;-73
2022/12/30 06:05:35;;;;;;;;;;;;;;;-144.99;97.95;52635.63;5032647;28;19943;-73
2022/12/30 06:08:03;;;;;;;;;;;;;;;-144.99;98.15;52660.09;5019761;28;19941;-72
2022/12/30 06:10:30;;;;;;;;;;;;;;;-144.99;98.63;52611.16;5008448;28;19967;-74
2022/12/30 06:12:56;;;;;;;;;;;;;;;-144.99;98.81;52649.88;5024324;28;19962;-73
2022/12/30 06:15:23;;;;;;;;;;;;;;;-144.99;99.32;52625.44;5031858;28;19943;-74
2022/12/30 06:17:49;;;;;;;;;;;;;;;-144.99;99.65;52656.00;5032615;28;19948;-74
2022/12/30 06:20:16;;;;;;;;;;;;;;;-144.99;99.69;52676.38;5033050;28;19982;-74
2022/12/30 06:22:43;;;;;;;;;;;;;;;-144.99;99.84;52680.47;5019495;28;20010;-74
2022/12/30 06:25:11;;;;;;;;;;;;;;;-144.99;100.00;52664.16;5013515;28;19935;-74
2022/12/30 06:27:38;;;;;;;;;;;;;;;-144.99;100.00;52674.34;5013438;28;19949;-74
2022/12/30 06:30:05;;;;;;;;;;;;;;;-144.99;100.00;52664.16;5012644;28;20041;-76
2022/12/30 06:32:32;;;;;;;;;;;;;;;-144.99;100.00;52651.94;4320083;28;10000743;-75
2022/12/30 06:34:58;;;;;;;;;;;;;;;-144.99;100.00;52645.81;5020010;28;19935;-75
2022/12/30 06:37:25;;;;;;;;;;;;;;;-144.99;100.00;52629.50;4999849;28;19940;-75
2022/12/30 06:39:51;;;;;;;;;;;;;;;-144.99;100.00;52668.22;5031212;28;19981;-74
2022/12/30 06:42:19;;;;;;;;;;;;;;;-144.99;100.00;52631.53;5016566;28;19938;-75
2022/12/30 06:44:46;;;;;;;;;;;;;;;-144.99;100.00;52605.03;5009852;28;20268;-76
2022/12/30 06:47:13;;;;;;;;;;;;;;;-144.99;100.00;52662.13;5017742;28;19939;-78
2022/12/30 06:49:39;;;;;;;;;;;;;;;-144.99;100.00;52653.97;5018180;28;19959;-77
2022/12/30 06:52:06;;;;;;;;;;;;;;;-144.99;100.00;52647.84;5000459;28;19957;-76
2022/12/30 06:54:32;;;;;;;;;;;;;;;-144.99;100.00;52680.47;5002653;28;19932;-78
2022/12/30 06:56:59;;;;;;;;;;;;;;;-144.99;100.00;52647.84;5007097;28;21104;-77
2022/12/30 06:59:27;;;;;;;;;;;;;;;-144.99;100.00;52688.63;5011499;28;20023;-77
2022/12/30 07:01:53;;;;;;;;;;;;;;;-144.99;100.00;52656.00;5014011;28;19943;-79
2022/12/30 07:04:20;;;;;;;;;;;;;;;-144.99;100.00;52598.94;5012240;28;19936;-79
2022/12/30 07:06:47;;;;;;;;;;;;;;;-144.99;100.00;52668.22;5012717;28;19937;-76
2022/12/30 07:09:13;;;;;;;;;;;;;;;-144.99;100.00;52627.47;5001109;28;19943;-78
2022/12/30 07:11:40;;;;;;;;;;;;;;;-144.99;100.00;52678.44;5000893;28;20339;-76
2022/12/30 07:14:07;;;;;;;;;;;;;;;-144.99;100.00;52635.63;5008341;28;19942;-78
2022/12/30 07:16:35;;;;;;;;;;;;;;;-144.99;100.00;52631.53;5006064;28;19949;-78
2022/12/30 07:19:01;;;;;;;;;;;;;;;-144.99;100.00;52631.53;5004418;28;20025;-78
2022/12/30 07:21:28;;;;;;;;;;;;;;;-144.99;100.00;52627.47;5022913;23;20312;-75
2022/12/30 07:23:54;;;;;;;;;;;;;;;-144.99;100.00;52656.00;4954780;28;20417;-77
2022/12/30 07:26:21;;;;;;;;;;;;;;;-144.99;100.00;52664.16;4978008;28;20405;-75
2022/12/30 07:28:47;;;;;;;;;;;;;;;-144.99;100.00;52656.00;4967248;28;19981;-77
2022/12/30 07:31:14;;;;;;;;;;;;;;;-144.99;100.00;52664.16;4979015;28;20010;-78
2022/12/30 07:33:42;;;;;;;;;;;;;;;-144.99;100.00;52643.78;4971643;28;20400;-78
2022/12/30 07:36:09;;;;;;;;;;;;;;;-144.99;100.00;52676.38;4969012;28;20348;-77
2022/12/30 07:38:35;;;;;;;;;;;;;;;-144.99;100.00;52627.47;4948215;29;20427;-76
2022/12/30 07:41:04;;;;;;;;;;;;;;;-144.99;100.00;52694.72;4964364;28;20286;-74
2022/12/30 07:43:31;;;;;;;;;;;;;;;-144.99;100.00;52672.31;4969586;28;19952;-76
2022/12/30 07:45:57;;;;;;;;;;;;;;;-144.99;100.00;52676.38;4967989;28;20390;-78
2022/12/30 07:48:24;;;;;;;;;;;;;;;-144.99;100.00;52670.28;4978298;28;19958;-77
2022/12/30 07:50:52;;;;;;;;;;;;;;;-144.99;100.00;52692.69;4973795;28;19973;-75
2022/12/30 07:53:19;;;;;;;;;;;;;;;-144.99;100.00;52651.94;4954768;28;19976;-77
2022/12/30 07:55:45;;;;;;;;;;;;;;;-144.99;100.00;52664.16;4638481;28;9999637;-80
2022/12/30 07:58:12;;;;;;;;;;;;;;;-144.99;100.00;52660.09;4993320;28;19957;-77
2022/12/30 08:00:38;;;;;;;;;;;;;;;-144.99;100.00;52647.84;4982684;28;19945;-75
2022/12/30 08:03:06;;;;;;;;;;;;;;;-144.99;100.00;52668.22;5007412;28;19956;-79
2022/12/30 08:05:32;;;;;;;;;;;;;;;-144.99;100.00;52660.09;5006974;28;20046;-79
2022/12/30 08:08:00;;;;;;;;;;;;;;;-144.99;100.00;52635.63;4982923;28;19972;-75
2022/12/30 08:10:27;;;;;;;;;;;;;;;-144.99;100.00;52656.00;4957690;28;19959;-77
2022/12/30 08:12:53;;;;;;;;;;;;;;;-144.99;100.00;52627.47;4969914;28;20070;-76
2022/12/30 08:15:20;;;;;;;;;;;;;;;-144.99;100.00;52631.53;4979434;28;19955;-78
2022/12/30 08:17:47;;;;;;;;;;;;;;;-144.99;100.00;52647.84;4958775;28;20006;-78
2022/12/30 08:20:13;;;;;;;;;;;;;;;-144.99;100.00;52660.09;4965517;28;20208;-78
2022/12/30 08:22:40;;;;;;;;;;;;;;;-144.99;100.00;52611.16;4967038;28;19980;-77
2022/12/30 08:25:08;;;;;;;;;;;;;;;-144.99;100.00;52598.94;4956049;28;19953;-78
2022/12/30 08:27:35;;;;;;;;;;;;;;;-144.99;100.00;52664.16;4982658;28;19962;-78
2022/12/30 08:30:01;;;;;;;;;;;;;;;-144.99;100.00;52639.69;4987341;28;19946;-78
2022/12/30 08:32:28;;;;;;;;;;;;;;;-144.99;100.00;52639.69;4986600;28;19967;-78
2022/12/30 08:34:54;;;;;;;;;;;;;;;-144.99;100.00;52594.84;4969252;28;19956;-79
2022/12/30 08:37:21;;;;;;;;;;;;;;;-144.99;100.00;52639.69;4966077;28;19955;-78
2022/12/30 08:39:48;;;;;;;;;;;;;;;-144.99;100.00;52603.00;4993315;28;19940;-77
2022/12/30 08:42:16;;;;;;;;;;;;;;;-144.99;100.00;52653.97;4970311;28;19969;-78
2022/12/30 08:44:42;;;;;;;;;;;;;;;-144.99;100.00;52603.00;4986489;28;19949;-79
2022/12/30 08:47:09;;;;;;;;;;;;;;;-144.99;100.00;52647.84;4972835;28;20010;-77
2022/12/30 08:49:36;;;;;;;;;;;;;;;-144.99;100.00;52623.38;4969150;28;19949;-79
2022/12/30 08:52:02;;;;;;;;;;;;;;;-144.99;100.00;52635.63;4969629;28;20089;-78
2022/12/30 08:54:29;;;;;;;;;;;;;;;-144.99;100.00;52631.53;4970960;28;19979;-78
2022/12/30 08:56:55;;;;;;;;;;;;;;;-144.99;100.00;52647.84;4971307;28;19943;-77
2022/12/30 08:59:23;;;;;;;;;;;;;;;-144.99;100.00;52635.63;4965414;28;20142;-77
2022/12/30 09:01:50;;;;;;;;;;;;;;;-144.99;100.00;52619.31;4962251;28;20005;-77
2022/12/30 09:04:17;;;;;;;;;;;;;;;-144.99;99.57;52609.13;4987708;28;19963;-77
2022/12/30 09:06:44;;;;;;;;;;;;;;;-144.99;97.91;52623.38;4985405;28;20436;-77
2022/12/30 09:09:12;;;;;;;;;;;;;;;-144.99;97.94;52653.97;4958159;28;19950;-79
2022/12/30 09:11:40;;;;;;;;;;;;;;;-144.99;96.51;52619.31;4961700;28;19973;-79
2022/12/30 09:14:07;;;;;;;;;;;;;;;-144.99;96.08;52641.72;4977276;28;19967;-79
2022/12/30 09:16:35;;;;;;;;;;;;;;;-144.99;96.00;52615.25;4982742;28;20325;-77
2022/12/30 09:19:02;;;;;;;;;;;;;;;-144.99;96.10;52643.78;4975448;28;19949;-79
2022/12/30 09:21:28;;;;;;;;;;;;;;;-144.99;95.67;52662.13;4969608;28;20109;-74
2022/12/30 09:23:55;;;;;;;;;;;;;;;-144.99;94.70;52639.69;4966469;28;20515;-75
2022/12/30 09:26:23;;;;;;;;;;;;;;;-144.99;94.10;52615.25;4970137;28;19949;-76
2022/12/30 09:28:49;;;;;;;;;;;;;;;-144.99;94.49;52598.94;4986301;28;19960;-78
2022/12/30 09:31:16;;;;;;;;;;;;;;;-144.99;94.47;52615.25;4968777;28;20229;-78
2022/12/30 09:33:44;;;;;;;;;;;;;;;-144.99;93.94;52629.50;4968981;28;19949;-76
2022/12/30 09:36:11;;;;;;;;;;;;;;;-144.99;93.91;52627.47;4967580;28;20336;-78
2022/12/30 09:38:38;;;;;;;;;;;;;;;-144.99;93.14;52598.94;4967384;28;20343;-78
2022/12/30 09:41:07;;;;;;;;;;;;;;;-144.99;92.93;52635.63;4985291;28;19991;-77
2022/12/30 09:43:36;;;;;;;;;;;;;;;-144.99;91.20;52596.88;4985366;28;20491;-78
2022/12/30 09:46:16;;;;;;;;;;;;;;;-144.99;90.11;52615.25;4979711;28;19957;-79
2022/12/30 09:48:47;;;;;;;;;;;;;;;-144.99;90.08;52623.38;4968256;28;19955;-76
2022/12/30 09:51:16;;;;;;;;;;;;;;;-144.99;90.33;52596.88;4968558;28;20110;-77
2022/12/30 09:53:46;;;;;;;;;;;;;;;-144.99;91.11;52586.69;4969550;28;19952;-79
2022/12/30 09:56:14;;;;;;;;;;;;;;;-144.99;90.13;52631.53;4974175;28;20476;-78
2022/12/30 09:58:41;;;;;;;;;;;;;;;-144.99;88.21;52631.53;4961003;28;19950;-80
2022/12/30 10:01:14;;;;;;;;;;;;;;;-144.99;87.58;52603.00;4961164;28;19972;-78
2022/12/30 10:03:41;;;;;;;;;;;;;;;-144.99;86.34;52631.53;4965129;28;19955;-78
2022/12/30 10:06:15;;;;;;;;;;;;;;;-144.99;86.78;52617.28;4966846;28;19958;-79
2022/12/30 10:08:55;;;;;;;;;;;;;;;-144.99;86.29;52578.53;4965452;28;19940;-78
2022/12/30 10:11:28;;;;;;;;;;;;;;;-144.99;85.66;52562.25;4960047;28;19994;-78
2022/12/30 10:13:59;;;;;;;;;;;;;;;-144.99;85.07;52590.78;4953311;28;20209;-76
2022/12/30 10:16:33;;;;;;;;;;;;;;;-144.99;85.50;52594.84;4966821;28;19951;-78
2022/12/30 10:19:07;;;;;;;;;;;;;;;-144.99;84.67;52576.50;4955598;28;19953;-79
2022/12/30 10:21:42;;;;;;;;;;;;;;;-144.99;83.48;52594.84;4965865;28;20254;-78
2022/12/30 10:24:21;;;;;;;;;;;;;;;-144.99;82.28;52574.47;4971345;28;19944;-81
2022/12/30 10:26:49;;;;;;;;;;;;;;;-144.99;81.08;52590.78;4991679;28;19940;-79
2022/12/30 10:29:18;;;;;;;;;;;;;;;-144.99;81.26;52603.00;4984354;28;20021;-80
2022/12/30 10:31:46;;;;;;;;;;;;;;;-144.99;80.66;52582.63;4987012;28;19958;-80
2022/12/30 10:34:14;;;;;;;;;;;;;;;-144.99;79.03;52562.25;5000892;28;19948;-79
2022/12/30 10:36:45;;;;;;;;;;;;;;;-144.99;78.68;52582.63;4989120;28;20307;-77
2022/12/30 10:39:15;;;;;;;;;;;;;;;-144.99;77.87;52550.00;4991330;28;19996;-80
2022/12/30 10:41:47;;;;;;;;;;;;;;;-144.99;78.37;52545.94;5008259;28;19969;-77
2022/12/30 10:44:17;;;;;;;;;;;;;;;-144.99;78.03;52545.94;5007444;28;19952;-77
2022/12/30 10:47:01;;;;;;;;;;;;;;;-144.99;77.43;52564.28;4997012;28;20144;-80
2022/12/30 10:49:32;;;;;;;;;;;;;;;-144.99;76.84;52521.47;4978378;28;19948;-80
2022/12/30 10:52:01;;;;;;;;;;;;;;;-144.99;76.55;52550.00;4988971;28;19979;-81
2022/12/30 10:54:27;;;;;;;;;;;;;;;-144.99;75.92;52537.78;4995864;28;19939;-78
2022/12/30 10:56:54;;;;;;;;;;;;;;;-144.99;76.54;52545.94;5005732;28;19956;-78
2022/12/30 10:59:22;;;;;;;;;;;;;;;-144.99;78.56;52562.25;4987625;28;19971;-79
2022/12/30 11:01:51;;;;;;;;;;;;;;;-144.99;78.63;52590.78;4983594;28;19962;-76
2022/12/30 11:04:34;;;;;;;;;;;;;;;-144.99;79.46;52558.16;4999764;28;19977;-79
2022/12/30 11:07:03;;;;;;;;;;;;;;;-144.99;79.94;52580.59;4987707;28;19927;-77
2022/12/30 11:09:30;;;;;;;;;;;;;;;-144.99;79.47;52574.47;4981642;28;19944;-80
2022/12/30 11:14:44;;;;;;;;;;;;;;;-144.99;80.71;52639.69;4988544;28;20126;-78
2022/12/30 11:17:19;;;;;;;;;;;;;;;-144.99;80.94;52572.44;4984855;28;19936;-78
2022/12/30 11:19:49;;;;;;;;;;;;;;;-144.99;81.15;52645.81;5001132;28;19945;-80
2022/12/30 11:22:17;;;;;;;;;;;;;;;-144.99;82.55;52582.63;5008204;28;19962;-79
2022/12/30 11:24:46;;;;;;;;;;;;;;;-144.99;83.59;52627.47;5008972;28;19995;-75
2022/12/30 11:27:12;;;;;;;;;;;;;;;-144.99;83.08;52619.31;4999052;28;19943;-80
2022/12/30 11:29:41;;;;;;;;;;;;;;;-144.99;83.73;52603.00;4988682;28;19947;-77
2022/12/30 11:32:10;;;;;;;;;;;;;;;-144.99;83.56;52607.09;4991095;28;20284;-76
2022/12/30 11:34:38;;;;;;;;;;;;;;;-144.99;84.42;52611.16;4988861;28;19952;-78
2022/12/30 11:37:23;;;;;;;;;;;;;;;-144.99;84.06;52635.63;4988796;28;19963;-78
2022/12/30 11:39:51;;;;;;;;;;;;;;;-144.99;84.93;52584.66;4988673;28;19964;-75
2022/12/30 11:42:28;;;;;;;;;;;;;;;-144.99;84.87;52660.09;4987691;28;19964;-76
2022/12/30 11:45:09;;;;;;;;;;;;;;;-144.99;84.65;52615.25;4987910;28;19947;-78
2022/12/30 11:47:36;;;;;;;;;;;;;;;-144.99;85.31;52623.38;4992342;28;19958;-77
2022/12/30 11:50:03;;;;;;;;;;;;;;;-144.99;86.19;52651.94;5006992;28;19967;-78
2022/12/30 11:52:29;;;;;;;;;;;;;;;-144.99;86.09;52643.78;4994612;28;20014;-79
2022/12/30 11:54:58;;;;;;;;;;;;;;;-144.99;86.20;52637.66;4995202;28;20075;-80
2022/12/30 11:57:30;;;;;;;;;;;;;;;-144.99;85.89;52619.31;4999069;28;19931;-79
2022/12/30 11:59:58;;;;;;;;;;;;;;;-144.99;86.38;52660.09;4995422;28;19952;-79
2022/12/30 12:02:26;;;;;;;;;;;;;;;-144.99;86.28;52656.00;5001271;28;19978;-79
2022/12/30 12:04:53;;;;;;;;;;;;;;;-144.99;86.39;52623.38;5011985;28;19947;-81
2022/12/30 12:07:21;;;;;;;;;;;;;;;-144.99;85.96;52603.00;5004530;28;19948;-81
2022/12/30 12:09:51;;;;;;;;;;;;;;;-144.99;86.40;52607.09;4987211;28;20046;-77
2022/12/30 12:12:21;;;;;;;;;;;;;;;-144.99;85.82;52641.72;4978356;28;19966;-78
2022/12/30 12:14:57;;;;;;;;;;;;;;;-144.99;86.01;52615.25;4988602;28;19960;-79
2022/12/30 12:17:29;;;;;;;;;;;;;;;-144.99;85.67;52631.53;4988644;28;19950;-78
2022/12/30 12:20:00;;;;;;;;;;;;;;;-144.99;85.77;52631.53;4974639;28;19957;-78
2022/12/30 12:22:28;;;;;;;;;;;;;;;-144.99;85.16;52668.22;4975295;28;19979;-80
2022/12/30 12:24:57;;;;;;;;;;;;;;;-144.99;84.86;52615.25;4969092;28;19951;-78
2022/12/30 12:27:27;;;;;;;;;;;;;;;-144.99;84.94;52617.28;4967744;28;19952;-78
2022/12/30 12:29:55;;;;;;;;;;;;;;;-144.99;84.64;52643.78;4967597;28;20358;-76
2022/12/30 12:32:46;;;;;;;;;;;;;;;-144.99;84.29;52586.69;4970661;28;19983;-79
2022/12/30 12:35:20;;;;;;;;;;;;;;;-144.99;83.74;52615.25;4952479;28;19957;-80
2022/12/30 12:37:54;;;;;;;;;;;;;;;-144.99;83.19;52627.47;4976059;28;19954;-78
2022/12/30 12:40:35;;;;;;;;;;;;;;;-144.99;82.50;52607.09;4987626;28;20489;-78
2022/12/30 12:43:09;;;;;;;;;;;;;;;-144.99;81.63;52584.66;4954285;28;19970;-80
2022/12/30 12:45:49;;;;;;;;;;;;;;;-144.99;79.60;52603.00;4983767;28;19959;-80
2022/12/30 12:48:22;;;;;;;;;;;;;;;-144.99;78.61;52572.44;4988525;28;19964;-80
2022/12/30 12:50:57;;;;;;;;;;;;;;;-144.99;76.64;52521.47;4999510;28;20317;-79
2022/12/30 12:53:41;;;;;;;;;;;;;;;-144.99;72.53;52505.16;4972264;28;19965;-78
2022/12/30 12:56:25;;;;;;;;;;;;;;;-144.99;70.34;52525.56;4975130;28;19951;-76
2022/12/30 12:59:02;;;;;;;;;;;;;;;-144.99;69.53;52570.38;4962227;28;19948;-78
2022/12/30 13:01:33;;;;;;;;;;;;;;;-144.99;69.89;52582.63;4966724;28;20087;-75
2022/12/30 13:04:08;;;;;;;;;;;;;;;-144.99;71.13;52570.38;4967333;28;20439;-78
2022/12/30 13:06:38;;;;;;;;;;;;;;;-144.99;72.11;52611.16;4980045;28;20298;-78
2022/12/30 13:09:22;;;;;;;;;;;;;;;-144.99;72.65;52588.75;4966994;28;19954;-77
2022/12/30 13:11:52;;;;;;;;;;;;;;;-144.99;73.87;52586.69;4965415;28;20430;-79
2022/12/30 13:14:25;;;;;;;;;;;;;;;-144.99;74.35;52611.16;4985935;28;19950;-78
2022/12/30 13:16:54;;;;;;;;;;;;;;;-144.99;74.83;52615.25;4982371;28;19953;-78
2022/12/30 13:19:22;;;;;;;;;;;;;;;-144.99;75.33;52627.47;4970701;28;20350;-77
2022/12/30 13:21:52;;;;;;;;;;;;;;;-144.99;75.53;52607.09;4974810;28;19980;-78
2022/12/30 13:24:25;;;;;;;;;;;;;;;-144.99;76.25;52635.63;5011128;28;19954;-77
2022/12/30 13:26:52;;;;;;;;;;;;;;;-144.99;76.77;52611.16;4959800;28;19958;-77
2022/12/30 13:29:20;;;;;;;;;;;;;;;-144.99;77.64;52623.38;4965601;28;20756;-79